Time;durP1;ratioP1;P1;durP2;ratioP2;P2;SDS_P1;SDS_P2;PMS_P1;PMS_P2;Temp;Humidity;BMP_temperature;BMP_pressure;BME280_temperature;BME280_humidity;BME280_pressure;Samples;Min_cycle;Max_cycle;Signal;HPM_P1;HPM_P2
2022/06/07 00:02:25;;;;;;;12.43;6.43;;;14.00;87.20;;;;;;5073242;28;20024;-80
2022/06/07 00:04:53;;;;;;;11.45;5.13;;;14.00;87.20;;;;;;5072125;28;20055;-80
2022/06/07 00:07:19;;;;;;;9.13;5.05;;;14.00;87.20;;;;;;5073234;28;20094;-79
2022/06/07 00:09:45;;;;;;;9.68;4.43;;;14.10;86.60;;;;;;5073238;28;20099;-79
2022/06/07 00:12:12;;;;;;;9.65;4.50;;;14.10;86.20;;;;;;5073415;28;20052;-78
2022/06/07 00:14:38;;;;;;;7.53;4.47;;;14.10;86.00;;;;;;5072946;28;20435;-79
2022/06/07 00:17:05;;;;;;;7.80;4.15;;;14.20;85.80;;;;;;5054941;28;20059;-79
2022/06/07 00:19:34;;;;;;;10.50;4.32;;;14.20;85.40;;;;;;5072989;28;20028;-81
2022/06/07 00:22:00;;;;;;;6.93;4.20;;;14.20;85.00;;;;;;5072292;28;20024;-76
2022/06/07 00:24:26;;;;;;;12.07;4.13;;;14.20;84.40;;;;;;5072840;28;20072;-79
2022/06/07 00:26:52;;;;;;;9.98;4.07;;;14.20;83.60;;;;;;5072356;28;20017;-79
2022/06/07 00:29:19;;;;;;;7.50;3.95;;;14.20;83.20;;;;;;5030342;28;20043;-77
2022/06/07 00:31:45;;;;;;;5.60;3.88;;;14.20;82.60;;;;;;5013803;28;20029;-78
2022/06/07 00:34:12;;;;;;;8.32;3.80;;;14.20;82.30;;;;;;5030580;28;20479;-79
2022/06/07 00:36:38;;;;;;;9.20;3.95;;;14.20;82.40;;;;;;5014407;28;20026;-78
2022/06/07 00:39:05;;;;;;;5.53;3.97;;;14.20;82.20;;;;;;5029117;28;20068;-79
2022/06/07 00:41:31;;;;;;;6.95;3.58;;;14.10;81.40;;;;;;5030078;28;20021;-78
2022/06/07 00:44:21;;;;;;;5.57;3.60;;;14.10;81.30;;;;;;5030058;28;20045;-79
2022/06/07 00:47:03;;;;;;;5.13;3.58;;;14.10;81.20;;;;;;5030254;28;20084;-78
2022/06/07 00:49:33;;;;;;;7.38;3.95;;;14.00;80.90;;;;;;5024816;28;20073;-78
2022/06/07 00:51:59;;;;;;;7.40;3.47;;;14.00;81.10;;;;;;5010308;28;20060;-79
2022/06/07 00:54:28;;;;;;;8.20;4.50;;;13.90;80.80;;;;;;5010364;28;20523;-79
2022/06/07 00:56:54;;;;;;;5.32;3.55;;;13.90;80.50;;;;;;5010466;28;20045;-79
2022/06/07 00:59:20;;;;;;;6.07;3.55;;;13.90;80.60;;;;;;5012066;28;20041;-79
2022/06/07 01:01:46;;;;;;;5.70;4.00;;;13.80;80.60;;;;;;5061279;28;20033;-78
2022/06/07 01:04:12;;;;;;;7.85;3.83;;;13.80;80.60;;;;;;5054106;28;20090;-79
2022/06/07 01:12:06;;;;;;;4.25;3.10;;;13.70;81.20;;;;;;5052302;28;20020;-79
2022/06/07 01:14:32;;;;;;;3.92;3.28;;;13.60;79.80;;;;;;5051383;28;20075;-79
2022/06/07 01:16:58;;;;;;;4.88;3.47;;;13.60;79.60;;;;;;5052030;28;20098;-78
2022/06/07 01:19:25;;;;;;;5.28;3.17;;;13.60;79.80;;;;;;5052202;28;20100;-78
2022/06/07 01:21:51;;;;;;;6.07;3.10;;;13.60;79.70;;;;;;5052168;28;20024;-79
2022/06/07 01:24:17;;;;;;;6.00;3.83;;;13.60;79.50;;;;;;5034277;28;20290;-79
2022/06/07 01:26:43;;;;;;;10.45;3.28;;;13.60;79.40;;;;;;5049985;28;20045;-80
2022/06/07 01:29:10;;;;;;;4.78;3.40;;;13.60;79.30;;;;;;5033322;28;20029;-78
2022/06/07 01:31:36;;;;;;;4.93;3.63;;;13.60;79.20;;;;;;5033672;28;20112;-80
2022/06/07 01:34:03;;;;;;;5.82;3.40;;;13.60;79.20;;;;;;5054222;28;20029;-77
2022/06/07 01:36:30;;;;;;;4.95;3.47;;;13.60;79.00;;;;;;5054653;28;20036;-79
2022/06/07 01:41:55;;;;;;;5.95;3.70;;;13.60;78.90;;;;;;5051714;28;20138;-79
2022/06/07 01:44:30;;;;;;;5.50;3.35;;;13.60;78.10;;;;;;5052195;28;20100;-78
2022/06/07 01:46:59;;;;;;;8.52;3.75;;;13.60;77.80;;;;;;5070016;28;20048;-79
2022/06/07 01:49:25;;;;;;;5.32;3.47;;;13.60;77.60;;;;;;5070946;28;20078;-79
2022/06/07 01:51:52;;;;;;;5.10;3.53;;;13.70;77.10;;;;;;5065952;28;20071;-80
2022/06/07 01:54:20;;;;;;;6.80;3.47;;;13.70;76.80;;;;;;5071163;28;20029;-80
2022/06/07 01:56:46;;;;;;;5.63;3.10;;;13.80;76.10;;;;;;5075672;28;20037;-80
2022/06/07 01:59:12;;;;;;;6.55;2.83;;;13.80;75.40;;;;;;5057790;28;20041;-78
2022/06/07 02:01:38;;;;;;;5.95;2.90;;;13.80;75.60;;;;;;5070037;28;20399;-80
2022/06/07 02:04:05;;;;;;;6.18;3.00;;;13.90;75.40;;;;;;5075355;28;20043;-80
2022/06/07 02:06:31;;;;;;;7.82;3.20;;;13.90;74.80;;;;;;5075386;28;20035;-78
2022/06/07 02:08:57;;;;;;;8.63;2.83;;;13.90;74.00;;;;;;5075179;28;20027;-78
2022/06/07 02:11:25;;;;;;;4.57;2.60;;;13.90;73.60;;;;;;5074773;28;20032;-78
2022/06/07 02:13:52;;;;;;;5.90;3.22;;;13.90;73.10;;;;;;5076555;28;20092;-79
2022/06/07 02:16:19;;;;;;;6.30;2.70;;;13.90;72.70;;;;;;5057578;28;20024;-78
2022/06/07 02:18:46;;;;;;;5.85;2.90;;;13.90;72.10;;;;;;5074241;28;20024;-79
2022/06/07 02:21:13;;;;;;;7.78;2.65;;;13.90;72.20;;;;;;5074953;28;20033;-79
2022/06/07 02:23:39;;;;;;;8.43;3.05;;;13.90;70.80;;;;;;5074621;28;20052;-79
2022/06/07 02:26:22;;;;;;;3.95;2.63;;;13.90;70.90;;;;;;5074924;28;20028;-78
2022/06/07 02:28:52;;;;;;;7.13;2.30;;;13.90;70.60;;;;;;5074571;28;20020;-78
2022/06/07 02:31:19;;;;;;;9.10;2.95;;;13.90;70.60;;;;;;5074870;28;20036;-78
2022/06/07 02:33:45;;;;;;;5.78;2.20;;;13.90;70.80;;;;;;5074511;28;20420;-78
2022/06/07 02:36:13;;;;;;;7.93;2.70;;;14.00;70.90;;;;;;5074866;28;20027;-78
2022/06/07 02:38:40;;;;;;;3.22;2.47;;;14.00;70.50;;;;;;5073210;28;20064;-79
2022/06/07 02:41:08;;;;;;;5.30;2.47;;;14.00;70.50;;;;;;5062443;28;20024;-78
2022/06/07 02:43:34;;;;;;;16.27;3.05;;;14.10;70.00;;;;;;5075237;28;20476;-79
2022/06/07 02:45:59;;;;;;;9.65;2.78;;;14.10;69.90;;;;;;5085063;28;20023;-78
2022/06/07 02:48:25;;;;;;;5.00;2.05;;;14.20;69.60;;;;;;5077661;28;20052;-79
2022/06/07 02:50:53;;;;;;;3.47;2.25;;;14.20;68.80;;;;;;5072971;28;20554;-79
2022/06/07 02:53:20;;;;;;;5.18;2.35;;;14.20;68.40;;;;;;5074580;28;20055;-78
2022/06/07 02:55:45;;;;;;;5.95;2.75;;;14.20;68.40;;;;;;5073624;28;20078;-78
2022/06/07 02:58:11;;;;;;;3.25;2.13;;;14.30;67.80;;;;;;5074358;28;20100;-79
2022/06/07 03:00:37;;;;;;;6.35;2.97;;;14.40;67.70;;;;;;5073918;28;20136;-79
2022/06/07 03:03:03;;;;;;;4.47;2.80;;;14.50;67.60;;;;;;5074192;28;20031;-79
2022/06/07 03:05:29;;;;;;;6.80;2.75;;;14.60;67.00;;;;;;5073026;28;20037;-78
2022/06/07 03:07:55;;;;;;;7.25;2.60;;;14.70;66.20;;;;;;5073961;28;20036;-79
2022/06/07 03:10:21;;;;;;;9.40;3.38;;;14.90;66.70;;;;;;5074204;28;20025;-79
2022/06/07 03:12:47;;;;;;;6.57;3.60;;;15.10;65.70;;;;;;5073955;28;20024;-78
2022/06/07 03:15:13;;;;;;;5.60;4.07;;;15.20;64.90;;;;;;5074255;28;20374;-79
2022/06/07 03:17:39;;;;;;;6.57;3.47;;;15.20;64.50;;;;;;5074287;28;20446;-79
2022/06/07 03:20:07;;;;;;;5.85;3.58;;;15.20;64.60;;;;;;5073839;28;20016;-79
2022/06/07 03:22:34;;;;;;;6.65;4.07;;;15.20;64.20;;;;;;5073010;28;20029;-78
2022/06/07 03:25:05;;;;;;;6.78;4.25;;;15.10;63.60;;;;;;5073381;28;20063;-79
2022/06/07 03:27:35;;;;;;;11.75;4.65;;;15.00;64.00;;;;;;5073416;28;20024;-79
2022/06/07 03:30:03;;;;;;;8.63;4.63;;;15.00;64.10;;;;;;5073757;28;20111;-79
2022/06/07 03:32:28;;;;;;;9.55;4.32;;;15.00;64.50;;;;;;5073670;28;20091;-79
2022/06/07 03:34:54;;;;;;;8.63;5.60;;;15.10;64.20;;;;;;5073230;28;20446;-79
2022/06/07 03:37:20;;;;;;;8.63;4.72;;;15.20;64.30;;;;;;5073611;28;20082;-79
2022/06/07 03:39:46;;;;;;;8.23;5.40;;;15.20;64.20;;;;;;5072572;28;20028;-79
2022/06/07 03:42:12;;;;;;;11.52;5.32;;;15.20;62.70;;;;;;5073515;28;20104;-79
2022/06/07 03:44:39;;;;;;;6.57;4.55;;;15.10;62.80;;;;;;5073303;28;20506;-77
2022/06/07 03:47:05;;;;;;;7.50;5.18;;;15.10;62.90;;;;;;5073147;28;20123;-79
2022/06/07 03:49:34;;;;;;;7.95;4.72;;;15.10;63.10;;;;;;5073130;28;20131;-81
2022/06/07 03:52:00;;;;;;;9.35;4.72;;;15.10;63.60;;;;;;5073338;28;20035;-78
2022/06/07 03:54:27;;;;;;;8.48;5.03;;;15.20;64.00;;;;;;5054734;28;20036;-80
2022/06/07 03:56:52;;;;;;;7.80;4.47;;;15.30;63.70;;;;;;5073261;28;20162;-79
2022/06/07 03:59:18;;;;;;;5.90;3.83;;;15.50;62.90;;;;;;5073742;28;20708;-78
2022/06/07 04:01:44;;;;;;;9.25;3.60;;;15.60;62.40;;;;;;5073518;28;20064;-79
2022/06/07 04:04:10;;;;;;;7.43;3.80;;;15.70;62.00;;;;;;5054803;28;20414;-78
2022/06/07 04:08:10;;;;;;;8.10;3.33;;;15.70;61.60;;;;;;5072856;28;20075;-78
2022/06/07 04:09:28;;;;;;;8.55;3.10;;;15.70;61.30;;;;;;5064531;28;20043;-78
2022/06/07 04:11:54;;;;;;;6.63;3.22;;;15.70;61.20;;;;;;5053547;28;20029;-78
2022/06/07 04:14:20;;;;;;;6.33;2.97;;;15.80;61.70;;;;;;5053401;28;20025;-78
2022/06/07 04:16:46;;;;;;;5.05;3.00;;;15.80;61.50;;;;;;5055884;28;20021;-77
2022/06/07 04:19:12;;;;;;;6.38;2.25;;;15.90;61.70;;;;;;5059988;28;20056;-78
2022/06/07 04:21:37;;;;;;;9.02;2.35;;;16.00;60.80;;;;;;5055479;28;20578;-77
2022/06/07 04:24:04;;;;;;;7.03;2.50;;;16.10;60.90;;;;;;5065524;28;20118;-79
2022/06/07 04:26:32;;;;;;;7.68;2.30;;;16.20;60.90;;;;;;5046668;28;20481;-86
2022/06/07 04:29:04;;;;;;;6.38;2.33;;;16.40;60.00;;;;;;5087908;28;20035;-82
2022/06/07 04:31:30;;;;;;;6.38;2.25;;;16.40;59.60;;;;;;5075142;28;20500;-80
2022/06/07 04:33:58;;;;;;;5.60;2.33;;;16.30;59.80;;;;;;5083062;28;20020;-79
2022/06/07 04:36:26;;;;;;;6.05;2.10;;;16.40;60.00;;;;;;5073430;28;20059;-80
2022/06/07 04:38:53;;;;;;;9.00;2.83;;;16.40;59.60;;;;;;5073183;28;20025;-82
2022/06/07 04:41:21;;;;;;;4.90;2.05;;;16.30;60.00;;;;;;5054997;28;20035;-80
2022/06/07 04:43:49;;;;;;;5.80;2.38;;;16.30;59.80;;;;;;5072516;28;20039;-84
2022/06/07 04:46:15;;;;;;;;;;;16.30;59.60;;;;;;5071893;28;20060;-81
2022/06/07 04:48:42;;;;;;;8.80;1.90;;;16.30;59.90;;;;;;5054146;28;19923;-82
2022/06/07 04:51:13;;;;;;;8.13;2.55;;;16.20;59.80;;;;;;5059041;28;20028;-80
2022/06/07 04:53:40;;;;;;;6.15;2.17;;;16.30;59.70;;;;;;5072198;28;20044;-81
2022/06/07 04:56:17;;;;;;;4.30;2.25;;;16.30;59.60;;;;;;5071756;28;20027;-80
2022/06/07 04:58:44;;;;;;;5.95;2.00;;;16.30;59.60;;;;;;5072689;28;20020;-80
2022/06/07 05:01:16;;;;;;;4.20;1.80;;;16.40;59.30;;;;;;5071307;28;20036;-81
2022/06/07 05:03:42;;;;;;;4.00;2.15;;;16.40;59.10;;;;;;5060598;28;20047;-82
2022/06/07 05:06:19;;;;;;;2.78;1.50;;;16.50;59.50;;;;;;5055569;28;20017;-82
2022/06/07 05:08:45;;;;;;;5.70;2.15;;;16.80;58.00;;;;;;5062464;28;20021;-83
2022/06/07 05:11:11;;;;;;;4.38;1.90;;;17.40;57.40;;;;;;5075947;28;20027;-82
2022/06/07 05:13:36;;;;;;;3.45;1.48;;;18.50;53.00;;;;;;5054397;28;20115;-83
2022/06/07 05:16:03;;;;;;;4.63;1.52;;;19.50;50.80;;;;;;5071632;28;20031;-81
2022/06/07 05:18:29;;;;;;;5.93;1.50;;;20.60;48.40;;;;;;5053923;28;20494;-81
2022/06/07 05:20:55;;;;;;;4.15;1.77;;;21.50;46.50;;;;;;5054039;28;20120;-82
2022/06/07 05:23:21;;;;;;;7.10;1.80;;;22.40;44.60;;;;;;5072713;28;20017;-82
2022/06/07 05:25:59;;;;;;;7.57;1.95;;;23.40;43.50;;;;;;5072434;28;20394;-82
2022/06/07 05:28:25;;;;;;;10.00;1.85;;;24.10;42.10;;;;;;5074296;28;20028;-81
2022/06/07 05:30:51;;;;;;;4.15;1.73;;;24.70;40.90;;;;;;5073412;28;20025;-82
2022/06/07 05:33:17;;;;;;;11.13;1.60;;;25.50;39.20;;;;;;5071688;28;20470;-83
2022/06/07 05:35:43;;;;;;;8.50;1.88;;;25.70;37.10;;;;;;5071467;28;20469;-82
2022/06/07 05:38:11;;;;;;;4.20;1.40;;;25.40;36.90;;;;;;5053764;28;20079;-81
2022/06/07 05:40:37;;;;;;;6.70;1.55;;;25.30;36.50;;;;;;5072000;28;20016;-82
2022/06/07 05:43:03;;;;;;;5.85;1.65;;;25.40;36.80;;;;;;5071977;28;20378;-82
2022/06/07 05:45:31;;;;;;;4.70;1.40;;;26.00;37.10;;;;;;5071330;28;20040;-81
2022/06/07 05:47:57;;;;;;;5.90;1.63;;;26.20;35.40;;;;;;5071638;28;20021;-83
2022/06/07 05:50:24;;;;;;;3.83;1.40;;;26.10;35.20;;;;;;5071614;28;20031;-84
2022/06/07 05:52:50;;;;;;;3.03;1.40;;;26.30;35.20;;;;;;5072815;28;20009;-80
2022/06/07 05:55:16;;;;;;;6.18;1.60;;;26.20;34.20;;;;;;5059790;28;20025;-82
2022/06/07 05:57:49;;;;;;;2.78;1.38;;;26.50;34.30;;;;;;5070835;28;20351;-82
2022/06/07 06:00:16;;;;;;;3.20;1.10;;;27.30;33.60;;;;;;5072050;28;20064;-82
2022/06/07 06:02:42;;;;;;;5.80;1.20;;;27.70;32.80;;;;;;5069102;28;20014;-83
2022/06/07 06:05:08;;;;;;;2.25;1.30;;;27.50;31.40;;;;;;5063561;28;20105;-82
2022/06/07 06:07:34;;;;;;;5.43;0.77;;;27.20;32.00;;;;;;5055493;28;20035;-84
2022/06/07 06:12:47;;;;;;;3.00;1.20;;;27.90;31.10;;;;;;5072540;28;20123;-84
2022/06/07 06:15:13;;;;;;;3.47;0.80;;;28.20;31.70;;;;;;5055437;28;20845;-83
2022/06/07 06:17:40;;;;;;;2.83;1.15;;;28.60;30.90;;;;;;5082135;28;20048;-81
2022/06/07 06:20:09;;;;;;;2.42;1.40;;;29.30;30.20;;;;;;5082147;28;20013;-80
2022/06/07 06:22:35;;;;;;;3.45;1.42;;;29.60;30.10;;;;;;5078483;28;20088;-81
2022/06/07 06:25:01;;;;;;;3.83;1.10;;;30.10;29.40;;;;;;5073082;28;20056;-83
2022/06/07 06:27:29;;;;;;;3.63;1.73;;;30.50;29.50;;;;;;5072026;28;20083;-81
2022/06/07 06:29:55;;;;;;;6.22;1.50;;;30.70;29.50;;;;;;5071299;28;20323;-83
2022/06/07 06:32:21;;;;;;;6.88;1.45;;;31.10;29.50;;;;;;5075675;28;20025;-83
2022/06/07 06:34:47;;;;;;;4.90;1.47;;;31.50;28.30;;;;;;5074905;28;20064;-82
2022/06/07 06:37:13;;;;;;;3.58;0.98;;;31.20;28.40;;;;;;5074796;28;20021;-82
2022/06/07 06:39:39;;;;;;;9.13;1.33;;;31.20;28.40;;;;;;5057407;28;20036;-82
2022/06/07 06:42:05;;;;;;;3.10;1.20;;;31.40;28.60;;;;;;5074825;28;20074;-83
2022/06/07 06:44:31;;;;;;;4.38;0.80;;;31.50;28.70;;;;;;5074069;28;20039;-84
2022/06/07 06:46:57;;;;;;;4.28;1.67;;;32.60;28.50;;;;;;5067594;28;20033;-81
2022/06/07 06:49:24;;;;;;;4.70;1.40;;;33.50;28.30;;;;;;5074162;28;20087;-81
2022/06/07 06:51:51;;;;;;;3.00;1.27;;;34.80;27.50;;;;;;5074607;28;20245;-83
2022/06/07 06:54:18;;;;;;;1.15;0.90;;;34.40;27.20;;;;;;5074407;28;20079;-82
2022/06/07 06:56:44;;;;;;;3.25;1.27;;;34.00;26.70;;;;;;5074409;28;20031;-83
2022/06/07 06:59:10;;;;;;;4.33;0.83;;;33.20;26.90;;;;;;5074328;28;20112;-82
2022/06/07 07:01:41;;;;;;;2.43;0.93;;;33.20;26.80;;;;;;5074938;28;20171;-83
2022/06/07 07:04:13;;;;;;;2.20;2.08;;;33.30;27.10;;;;;;5054173;28;20063;-82
2022/06/07 07:06:39;;;;;;;3.28;1.35;;;33.80;27.00;;;;;;5074115;28;20390;-82
2022/06/07 07:09:07;;;;;;;4.85;1.50;;;35.20;27.20;;;;;;5073931;28;20021;-82
2022/06/07 07:11:45;;;;;;;2.30;1.17;;;35.50;26.40;;;;;;5060831;28;20094;-83
2022/06/07 07:14:12;;;;;;;9.23;1.63;;;36.10;26.40;;;;;;5056357;28;20082;-83
2022/06/07 07:16:41;;;;;;;2.95;0.75;;;35.80;26.00;;;;;;5068170;28;20371;-82
2022/06/07 07:19:08;;;;;;;4.32;1.40;;;35.50;25.70;;;;;;5066451;28;20028;-82
2022/06/07 07:21:37;;;;;;;3.63;2.05;;;35.20;25.70;;;;;;5074033;28;20335;-84
2022/06/07 07:24:06;;;;;;;2.97;0.98;;;34.80;25.50;;;;;;5074164;28;20067;-82
2022/06/07 07:26:32;;;;;;;3.00;1.20;;;34.80;25.70;;;;;;5056352;28;20387;-83
2022/06/07 07:28:59;;;;;;;;;;;34.50;25.60;;;;;;5064502;28;20549;-81
2022/06/07 07:31:31;;;;;;;4.57;1.40;;;34.20;26.00;;;;;;5052101;28;20262;-81
2022/06/07 07:33:59;;;;;;;3.13;1.40;;;34.30;26.00;;;;;;5076177;28;20529;-81
2022/06/07 07:36:24;;;;;;;5.50;1.13;;;34.70;25.80;;;;;;5073624;28;20025;-82
2022/06/07 07:38:50;;;;;;;2.23;0.90;;;34.80;25.70;;;;;;5074967;28;20025;-83
2022/06/07 07:41:25;;;;;;;7.83;2.10;;;35.30;25.40;;;;;;5074331;28;20273;-82
2022/06/07 07:43:52;;;;;;;3.10;1.20;;;;;;;;;;5072774;28;20393;-84
2022/06/07 07:46:21;;;;;;;3.50;1.30;;;36.90;24.40;;;;;;5073713;28;20077;-83
2022/06/07 07:48:48;;;;;;;3.30;1.10;;;36.90;24.70;;;;;;5073391;28;20048;-83
2022/06/07 07:51:25;;;;;;;3.50;1.02;;;37.10;24.20;;;;;;5055833;28;20051;-83
2022/06/07 07:53:52;;;;;;;2.45;1.20;;;36.30;24.50;;;;;;5072898;28;20029;-81
2022/06/07 07:56:20;;;;;;;2.83;1.20;;;36.30;24.90;;;;;;5073179;28;20055;-82
2022/06/07 07:58:46;;;;;;;1.92;1.02;;;36.70;24.90;;;;;;5055859;28;20464;-82
2022/06/07 08:01:16;;;;;;;4.93;2.00;;;36.90;24.70;;;;;;5074952;28;20094;-82
2022/06/07 08:03:43;;;;;;;2.40;1.23;;;37.40;24.70;;;;;;5074320;28;20068;-82
2022/06/07 08:06:19;;;;;;;2.70;1.17;;;37.90;24.50;;;;;;5076921;28;20064;-84
2022/06/07 08:08:53;;;;;;;9.32;1.55;;;37.50;24.40;;;;;;5089028;28;20025;-82
2022/06/07 08:11:22;;;;;;;3.38;1.35;;;37.60;24.50;;;;;;5074385;28;20081;-83
2022/06/07 08:13:48;;;;;;;6.25;1.23;;;37.40;24.10;;;;;;5073363;28;20516;-82
2022/06/07 08:16:18;;;;;;;7.82;2.75;;;37.20;24.50;;;;;;5075360;28;20067;-83
2022/06/07 08:18:45;;;;;;;4.30;1.15;;;37.30;24.80;;;;;;5055978;28;20086;-82
2022/06/07 08:21:15;;;;;;;5.93;1.40;;;37.60;24.40;;;;;;5072666;28;20347;-83
2022/06/07 08:23:41;;;;;;;3.70;1.13;;;37.70;24.10;;;;;;5074876;28;20031;-83
2022/06/07 08:26:08;;;;;;;3.97;1.05;;;37.30;24.20;;;;;;5072387;28;20456;-82
2022/06/07 08:28:35;;;;;;;4.05;1.17;;;37.10;24.20;;;;;;5073452;28;20032;-82
2022/06/07 08:31:02;;;;;;;3.33;1.77;;;37.20;24.40;;;;;;5054865;28;20020;-83
2022/06/07 08:39:01;;;;;;;1.92;0.63;;;36.40;23.90;;;;;;5074948;28;20159;-80
2022/06/07 08:41:37;;;;;;;3.70;0.80;;;36.50;23.80;;;;;;5072380;28;20075;-82
2022/06/07 08:44:16;;;;;;;5.13;1.05;;;37.30;23.70;;;;;;5072603;28;20028;-82
2022/06/07 08:46:43;;;;;;;5.95;1.02;;;37.70;23.70;;;;;;5075784;28;20032;-84
2022/06/07 08:49:11;;;;;;;4.22;1.92;;;38.00;23.50;;;;;;5058432;28;20060;-81
2022/06/07 08:52:02;;;;;;;3.95;2.05;;;38.10;23.30;;;;;;5073114;28;20482;-81
2022/06/07 08:54:33;;;;;;;2.00;1.20;;;37.20;23.40;;;;;;5047991;28;20032;-82
2022/06/07 08:57:23;;;;;;;10.80;1.42;;;37.00;23.80;;;;;;5071998;28;20043;-82
2022/06/07 08:59:54;;;;;;;16.08;2.22;;;37.50;24.00;;;;;;5043002;28;20100;-84
2022/06/07 09:02:46;;;;;;;13.23;1.67;;;37.60;23.00;;;;;;5074206;28;20016;-82
2022/06/07 09:05:16;;;;;;;4.10;1.75;;;36.90;23.60;;;;;;5074380;28;20033;-81
2022/06/07 09:07:43;;;;;;;3.15;1.27;;;36.80;23.50;;;;;;5073913;28;20028;-81
2022/06/07 09:13:02;;;;;;;2.83;1.00;;;37.60;23.20;;;;;;5071966;28;20039;-83
2022/06/07 09:15:34;;;;;;;8.07;1.52;;;37.80;22.80;;;;;;5073158;28;20043;-82
2022/06/07 09:18:03;;;;;;;2.25;0.90;;;37.50;22.50;;;;;;5073064;28;20012;-82
2022/06/07 09:20:41;;;;;;;3.08;0.90;;;36.90;22.60;;;;;;5072929;28;20032;-82
2022/06/07 09:23:15;;;;;;;5.18;1.33;;;36.30;23.30;;;;;;5072938;28;20099;-86
2022/06/07 09:25:48;;;;;;;5.60;1.02;;;35.60;23.20;;;;;;5073491;28;20132;-81
2022/06/07 09:28:26;;;;;;;3.35;1.00;;;35.30;23.20;;;;;;5072115;28;20033;-81
2022/06/07 09:31:08;;;;;;;2.78;0.90;;;35.40;23.60;;;;;;5073073;28;20151;-81
2022/06/07 09:33:36;;;;;;;4.22;1.15;;;36.30;23.70;;;;;;5072391;28;20096;-81
2022/06/07 09:36:08;;;;;;;3.83;1.17;;;37.20;23.30;;;;;;5073320;28;20035;-83
2022/06/07 09:38:51;;;;;;;3.70;1.40;;;37.80;23.00;;;;;;5054249;28;20094;-82
2022/06/07 09:41:38;;;;;;;3.70;2.42;;;38.00;23.00;;;;;;5065836;28;20013;-82
2022/06/07 09:44:15;;;;;;;6.78;1.38;;;37.40;23.10;;;;;;5070322;28;20020;-81
2022/06/07 09:46:43;;;;;;;2.78;1.27;;;37.30;23.20;;;;;;5074215;28;20029;-84
2022/06/07 09:49:41;;;;;;;6.53;0.95;;;37.50;23.00;;;;;;5055828;28;20182;-83
2022/06/07 09:52:16;;;;;;;4.82;1.13;;;36.90;23.40;;;;;;5080731;28;20543;-80
2022/06/07 09:54:46;;;;;;;4.50;1.35;;;37.10;23.30;;;;;;5081638;28;20114;-83
2022/06/07 09:57:34;;;;;;;2.67;0.93;;;37.30;23.00;;;;;;5076710;28;20033;-83
2022/06/07 10:00:11;;;;;;;4.35;1.15;;;36.40;22.90;;;;;;5073903;28;20370;-82
2022/06/07 10:02:54;;;;;;;3.42;2.65;;;35.70;23.10;;;;;;5068233;28;20024;-81
2022/06/07 10:05:48;;;;;;;2.30;0.90;;;35.20;23.70;;;;;;5063576;28;20086;-81
2022/06/07 10:08:36;;;;;;;1.60;0.97;;;35.50;23.50;;;;;;5044841;28;20033;-81
2022/06/07 10:11:04;;;;;;;5.43;1.35;;;34.90;23.50;;;;;;5076421;28;20055;-82
2022/06/07 10:13:58;;;;;;;1.90;1.08;;;34.40;23.80;;;;;;5059894;28;20032;-83
2022/06/07 10:16:35;;;;;;;1.00;0.60;;;34.40;24.00;;;;;;5060611;28;20033;-81
2022/06/07 10:19:29;;;;;;;1.67;1.10;;;34.50;23.80;;;;;;5077566;28;20478;-83
2022/06/07 10:22:15;;;;;;;1.38;0.93;;;34.90;23.90;;;;;;5075115;28;20024;-82
2022/06/07 10:24:44;;;;;;;;;;;34.80;23.60;;;;;;5062096;28;20037;-81
2022/06/07 10:27:41;;;;;;;2.13;1.13;;;35.30;24.10;;;;;;5075455;28;19904;-83
2022/06/07 10:30:13;;;;;;;3.15;1.20;;;34.50;23.60;;;;;;5051778;28;20025;-84
2022/06/07 10:32:50;;;;;;;4.65;1.10;;;32.00;24.10;;;;;;5075765;28;20808;-82
2022/06/07 10:35:41;;;;;;;7.63;1.20;;;27.50;25.10;;;;;;5090387;28;20462;-83
2022/06/07 10:38:19;;;;;;;3.97;1.20;;;27.20;25.70;;;;;;5076299;28;20046;-82
2022/06/07 10:41:10;;;;;;;7.35;1.38;;;25.70;27.10;;;;;;5075686;28;20095;-83
2022/06/07 10:44:04;;;;;;;2.13;1.10;;;24.50;28.30;;;;;;5058065;28;20482;-83
2022/06/07 10:46:29;;;;;;;8.30;2.35;;;23.50;29.10;;;;;;5057425;28;20120;-83
2022/06/07 10:49:10;;;;;;;3.58;1.05;;;22.80;29.20;;;;;;5060945;28;20072;-82
2022/06/07 10:54:30;;;;;;;6.30;2.53;;;22.00;30.20;;;;;;5074810;28;20124;-81
2022/06/07 10:57:14;;;;;;;17.40;2.10;;;21.70;31.30;;;;;;5074974;28;20020;-83
2022/06/07 10:59:43;;;;;;;2.50;1.20;;;21.60;32.30;;;;;;5074746;28;20055;-83
2022/06/07 11:02:14;;;;;;;6.47;3.20;;;21.50;30.10;;;;;;5058809;28;20035;-82
2022/06/07 11:10:30;;;;;;;3.75;1.13;;;20.90;31.00;;;;;;5075386;28;20071;-82
2022/06/07 11:12:59;;;;;;;13.77;7.72;;;20.80;30.90;;;;;;5057126;28;20016;-85
2022/06/07 11:15:47;;;;;;;3.80;2.72;;;20.70;31.00;;;;;;5074865;28;20052;-84
2022/06/07 11:18:24;;;;;;;15.15;8.68;;;20.70;30.70;;;;;;5074007;28;20021;-84
2022/06/07 11:21:00;;;;;;;10.52;5.20;;;20.70;30.70;;;;;;5074859;28;20142;-83
2022/06/07 11:23:33;;;;;;;14.55;3.35;;;20.70;30.90;;;;;;5077086;28;20024;-85
2022/06/07 11:26:07;;;;;;;28.27;4.05;;;20.60;30.90;;;;;;5074351;28;20131;-84
2022/06/07 11:28:39;;;;;;;10.40;1.67;;;20.60;30.60;;;;;;5060550;28;20063;-83
2022/06/07 11:31:23;;;;;;;5.53;1.75;;;20.60;31.20;;;;;;5074731;28;20033;-85
2022/06/07 11:33:52;;;;;;;3.10;1.02;;;20.50;31.70;;;;;;5060947;28;20021;-84
2022/06/07 11:36:22;;;;;;;3.95;1.00;;;20.50;31.90;;;;;;5065517;28;20038;-84
2022/06/07 11:38:56;;;;;;;3.42;0.95;;;20.60;32.00;;;;;;5075862;28;20035;-82
2022/06/07 11:41:37;;;;;;;2.08;1.08;;;20.60;32.20;;;;;;5078645;28;20017;-84
2022/06/07 11:44:11;;;;;;;1.23;0.75;;;20.60;32.80;;;;;;5086292;28;20036;-83
2022/06/07 11:46:52;;;;;;;2.83;1.10;;;20.60;31.50;;;;;;5079125;28;20036;-84
2022/06/07 11:49:20;;;;;;;3.33;1.08;;;20.60;31.90;;;;;;5058052;28;20044;-83
2022/06/07 11:52:08;;;;;;;5.50;1.40;;;20.50;32.00;;;;;;5075630;28;20020;-83
2022/06/07 11:54:45;;;;;;;5.70;1.58;;;20.50;32.50;;;;;;5078063;28;20389;-83
2022/06/07 11:57:49;;;;;;;1.67;0.70;;;20.50;31.90;;;;;;5079846;28;20024;-82
2022/06/07 12:00:18;;;;;;;1.73;1.10;;;20.50;31.90;;;;;;5055790;28;20040;-84
2022/06/07 12:03:02;;;;;;;3.35;1.63;;;20.50;32.30;;;;;;5073631;28;20069;-84
2022/06/07 12:05:41;;;;;;;5.85;1.08;;;20.50;33.30;;;;;;5072995;28;20477;-82
2022/06/07 12:08:32;;;;;;;25.90;3.60;;;20.50;33.00;;;;;;5073562;28;20023;-84
2022/06/07 12:11:29;;;;;;;6.82;1.38;;;20.60;32.90;;;;;;5073548;28;20020;-84
2022/06/07 12:13:56;;;;;;;4.75;1.63;;;20.70;32.40;;;;;;5072425;28;20036;-83
2022/06/07 12:16:41;;;;;;;5.43;1.50;;;20.70;32.90;;;;;;5073278;28;20354;-84
2022/06/07 12:19:20;;;;;;;3.50;1.30;;;20.60;33.10;;;;;;5076343;28;20064;-84
2022/06/07 12:21:54;;;;;;;8.48;1.98;;;20.60;32.60;;;;;;5064923;28;20019;-83
2022/06/07 12:24:21;;;;;;;14.02;2.08;;;20.60;32.50;;;;;;5094198;28;20032;-83
2022/06/07 12:26:47;;;;;;;3.85;1.52;;;20.60;32.40;;;;;;5093874;28;20377;-81
2022/06/07 12:29:29;;;;;;;3.42;1.42;;;20.60;32.40;;;;;;5093013;28;20034;-82
2022/06/07 12:32:04;;;;;;;5.32;1.20;;;20.60;33.00;;;;;;5093499;28;20029;-82
2022/06/07 12:34:32;;;;;;;3.72;0.90;;;20.60;32.90;;;;;;5094047;28;20095;-82
2022/06/07 12:37:04;;;;;;;7.15;1.48;;;20.70;32.90;;;;;;5093873;28;20413;-83
2022/06/07 12:39:31;;;;;;;3.50;1.50;;;20.70;32.70;;;;;;5093914;28;20028;-82
2022/06/07 12:41:58;;;;;;;4.05;1.60;;;20.80;33.00;;;;;;5093698;28;20335;-83
2022/06/07 12:44:32;;;;;;;3.65;1.25;;;20.80;33.60;;;;;;5092558;28;20118;-81
2022/06/07 12:47:01;;;;;;;1.55;1.13;;;20.70;32.90;;;;;;5093308;28;20058;-84
2022/06/07 12:49:42;;;;;;;1.92;1.08;;;20.70;33.20;;;;;;5074999;28;20143;-81
2022/06/07 12:52:14;;;;;;;3.17;1.33;;;20.70;32.70;;;;;;5094490;28;20503;-83
2022/06/07 12:54:46;;;;;;;4.22;1.20;;;20.70;32.00;;;;;;5094297;28;20430;-81
2022/06/07 12:57:35;;;;;;;3.20;1.10;;;20.70;32.20;;;;;;5093350;28;20035;-84
2022/06/07 13:00:11;;;;;;;4.10;1.10;;;20.70;31.70;;;;;;5081160;28;20016;-82
2022/06/07 13:02:44;;;;;;;5.13;1.40;;;20.70;32.30;;;;;;5092796;28;20378;-83
2022/06/07 13:05:19;;;;;;;4.25;1.30;;;20.70;32.70;;;;;;5093276;28;20044;-83
2022/06/07 13:07:48;;;;;;;2.58;1.13;;;20.70;33.10;;;;;;5093576;28;20393;-83
2022/06/07 13:10:35;;;;;;;2.90;1.30;;;20.80;33.20;;;;;;5093214;28;20115;-82
2022/06/07 13:13:05;;;;;;;5.63;1.90;;;20.80;32.80;;;;;;5092696;28;20050;-81
2022/06/07 13:15:54;;;;;;;11.90;2.05;;;20.80;33.00;;;;;;5082286;28;20028;-84
2022/06/07 13:18:28;;;;;;;4.00;1.20;;;20.80;32.80;;;;;;5091374;28;20085;-84
2022/06/07 13:21:16;;;;;;;4.93;1.33;;;20.90;33.00;;;;;;5093889;28;20114;-84
2022/06/07 13:23:44;;;;;;;11.15;1.55;;;20.90;33.40;;;;;;5081172;28;20091;-85
2022/06/07 13:26:16;;;;;;;;;;;20.90;33.50;;;;;;5077221;28;20446;-82
2022/06/07 13:28:43;;;;;;;2.17;1.02;;;20.90;33.30;;;;;;5100464;28;19904;-84
2022/06/07 13:31:30;;;;;;;5.68;2.20;;;20.80;33.40;;;;;;5107323;28;20360;-83
2022/06/07 13:34:01;;;;;;;2.40;1.20;;;20.90;33.50;;;;;;5082801;28;20381;-84
2022/06/07 13:36:39;;;;;;;2.83;1.20;;;22.00;31.80;;;;;;5092952;28;20016;-82